Time,TemperatureF,DewpointF,PressureIn,WindDirection,WindDirectionDegrees,WindSpeedMPH,WindSpeedGustMPH,Humidity,HourlyPrecipIn,Conditions,Clouds,dailyrainin,SoftwareType,DateUTC
2013-08-03 00:03:00,82.3,71.5,29.96,East,100,4.6,4.6,70,0.00,CLR,,0.00,WeatherDisplay:10.37,2013-08-03 05:03:00,
2013-08-03 00:07:00,82.1,71.3,29.96,East,84,3.5,3.5,70,0.00,CLR,,0.00,WeatherDisplay:10.37,2013-08-03 05:07:00,
2013-08-03 00:13:00,81.9,71.6,29.96,East,84,3.5,3.5,71,0.00,CLR,,0.00,WeatherDisplay:10.37,2013-08-03 05:13:00,
2013-08-03 00:18:00,81.7,71.4,29.96,SE,128,5.8,5.8,71,0.00,CLR,,0.00,WeatherDisplay:10.37,2013-08-03 05:18:00,
2013-08-03 00:23:00,81.5,72.0,29.96,ESE,121,8.1,8.1,73,0.00,CLR,,0.00,WeatherDisplay:10.37,2013-08-03 05:23:00,
2013-08-03 00:28:00,81.3,71.8,29.97,SSE,158,4.6,4.6,73,0.00,CLR,,0.00,WeatherDisplay:10.37,2013-08-03 05:28:00,
2013-08-03 00:33:00,81.1,72.4,29.97,East,94,4.6,8.2,75,0.00,CLR,,0.00,WeatherDisplay:10.37,2013-08-03 05:33:00,
2013-08-03 00:38:00,81.0,72.7,29.97,East,90,9.0,9.0,76,0.00,CLR,,0.00,WeatherDisplay:10.37,2013-08-03 05:38:00,
2013-08-03 00:43:00,80.8,72.9,29.97,SE,130,8.1,8.1,77,0.00,CLR,,0.00,WeatherDisplay:10.37,2013-08-03 05:43:00,
2013-08-03 00:48:00,80.6,72.7,29.96,SE,136,3.5,3.5,77,0.00,CLR,,0.00,WeatherDisplay:10.37,2013-08-03 05:48:00,
2013-08-03 00:53:00,80.4,72.5,29.97,ESE,106,5.8,5.8,77,0.00,CLR,,0.00,WeatherDisplay:10.37,2013-08-03 05:53:00,
2013-08-03 00:58:00,80.2,72.7,29.97,ESE,121,4.6,4.6,78,0.00,CLR,,0.00,WeatherDisplay:10.37,2013-08-03 05:58:00,
2013-08-03 01:03:00,80.1,73.0,29.97,ESE,113,3.5,3.5,79,0.00,CLR,,0.00,WeatherDisplay:10.37,2013-08-03 06:03:00,
2013-08-03 01:08:00,79.9,72.8,29.97,SE,128,5.0,5.0,79,0.00,CLR,,0.00,WeatherDisplay:10.37,2013-08-03 06:08:00,
2013-08-03 01:13:00,79.8,72.7,29.97,SE,129,3.5,3.5,79,0.00,CLR,,0.00,WeatherDisplay:10.37,2013-08-03 06:13:00,
2013-08-03 01:18:00,79.6,72.9,29.97,SE,141,3.5,3.5,80,0.00,CLR,,0.00,WeatherDisplay:10.37,2013-08-03 06:18:00,
2013-08-03 01:23:00,79.5,72.8,29.97,SSE,148,2.3,2.3,80,0.00,CLR,,0.00,WeatherDisplay:10.37,2013-08-03 06:23:00,
2013-08-03 01:28:00,79.3,73.0,29.97,ESE,120,4.6,4.6,81,0.00,CLR,,0.00,WeatherDisplay:10.37,2013-08-03 06:28:00,
2013-08-03 01:33:00,79.2,72.9,29.97,ESE,122,2.3,2.3,81,0.00,CLR,,0.00,WeatherDisplay:10.37,2013-08-03 06:33:00,
2013-08-03 01:38:00,79.1,73.1,29.97,SE,129,2.3,2.3,82,0.00,CLR,,0.00,WeatherDisplay:10.37,2013-08-03 06:38:00,
2013-08-03 01:43:00,79.0,73.0,29.97,SE,140,4.0,4.0,82,0.00,CLR,,0.00,WeatherDisplay:10.37,2013-08-03 06:43:00,
2013-08-03 01:48:00,79.0,73.4,29.97,SSE,167,5.8,5.8,83,0.00,CLR,,0.00,WeatherDisplay:10.37,2013-08-03 06:48:00,
2013-08-03 01:53:00,78.9,73.3,29.97,SE,134,3.5,3.5,83,0.00,CLR,,0.00,WeatherDisplay:10.37,2013-08-03 06:53:00,
2013-08-03 01:58:00,78.8,73.6,29.97,SE,129,3.5,3.5,84,0.00,CLR,,0.00,WeatherDisplay:10.37,2013-08-03 06:58:00,
2013-08-03 02:03:00,78.7,73.5,29.97,SE,145,3.5,3.5,84,0.00,CLR,,0.00,WeatherDisplay:10.37,2013-08-03 07:03:00,
2013-08-03 02:08:00,78.5,73.6,29.97,ESE,120,3.5,3.5,85,0.00,CLR,,0.00,WeatherDisplay:10.37,2013-08-03 07:08:00,
2013-08-03 02:13:00,78.4,73.5,29.97,SE,141,3.5,3.5,85,0.00,CLR,,0.00,WeatherDisplay:10.37,2013-08-03 07:13:00,
2013-08-03 02:18:00,78.3,73.4,29.97,SE,134,2.3,2.3,85,0.00,CLR,,0.00,WeatherDisplay:10.37,2013-08-03 07:18:00,
2013-08-03 02:23:00,78.2,73.7,29.97,SE,134,3.5,3.5,86,0.00,CLR,,0.00,WeatherDisplay:10.37,2013-08-03 07:23:00,
2013-08-03 02:28:00,78.1,73.6,29.97,SSE,161,3.5,3.5,86,0.00,CLR,,0.00,WeatherDisplay:10.37,2013-08-03 07:28:00,
2013-08-03 02:33:00,78.0,73.8,29.97,SE,133,2.3,2.3,87,0.00,CLR,,0.00,WeatherDisplay:10.37,2013-08-03 07:33:00,
2013-08-03 02:38:00,78.0,73.8,29.96,SSE,163,2.3,2.3,87,0.00,CLR,,0.00,WeatherDisplay:10.37,2013-08-03 07:38:00,
2013-08-03 02:43:00,77.9,73.7,29.96,SSW,196,0.0,0.0,87,0.00,CLR,,0.00,WeatherDisplay:10.37,2013-08-03 07:43:00,
2013-08-03 02:48:00,77.8,73.6,29.96,SSE,160,2.3,2.3,87,0.00,CLR,,0.00,WeatherDisplay:10.37,2013-08-03 07:48:00,
2013-08-03 02:53:00,77.8,73.6,29.96,SE,142,2.3,2.3,87,0.00,CLR,,0.00,WeatherDisplay:10.37,2013-08-03 07:53:00,
2013-08-03 02:58:00,77.8,73.6,29.96,SE,145,4.0,4.0,87,0.00,CLR,,0.00,WeatherDisplay:10.37,2013-08-03 07:58:00,
2013-08-03 03:02:00,77.8,74.0,29.96,SSE,155,3.5,3.5,88,0.00,CLR,,0.00,WeatherDisplay:10.37,2013-08-03 08:02:00,
2013-08-03 03:08:00,77.9,74.1,29.96,SE,128,2.3,2.3,88,0.00,CLR,,0.00,WeatherDisplay:10.37,2013-08-03 08:08:00,
2013-08-03 03:13:00,78.0,74.2,29.96,SSE,152,3.5,3.5,88,0.00,CLR,,0.00,WeatherDisplay:10.37,2013-08-03 08:13:00,
2013-08-03 03:18:00,78.0,74.2,29.96,SSE,147,2.3,2.3,88,0.00,CLR,,0.00,WeatherDisplay:10.37,2013-08-03 08:18:00,
2013-08-03 03:23:00,78.0,74.2,29.96,SE,144,2.3,2.3,88,0.00,CLR,,0.00,WeatherDisplay:10.37,2013-08-03 08:23:00,
2013-08-03 03:27:00,78.1,74.3,29.96,SE,145,4.6,4.6,88,0.00,CLR,,0.00,WeatherDisplay:10.37,2013-08-03 08:27:00,
2013-08-03 03:33:00,78.1,74.3,29.96,SE,125,6.9,6.9,88,0.00,CLR,,0.00,WeatherDisplay:10.37,2013-08-03 08:33:00,
2013-08-03 03:38:00,78.1,74.3,29.96,SSE,152,3.5,3.5,88,0.00,CLR,,0.00,WeatherDisplay:10.37,2013-08-03 08:38:00,
2013-08-03 03:43:00,78.1,74.3,29.96,SSW,210,4.6,4.6,88,0.00,CLR,,0.00,WeatherDisplay:10.37,2013-08-03 08:43:00,
2013-08-03 03:48:00,78.1,74.3,29.96,SSE,153,4.6,4.6,88,0.00,CLR,,0.00,WeatherDisplay:10.37,2013-08-03 08:48:00,
2013-08-03 03:53:00,78.1,74.3,29.96,SSE,160,5.8,5.8,88,0.00,CLR,,0.00,WeatherDisplay:10.37,2013-08-03 08:53:00,
2013-08-03 03:58:00,78.1,74.3,29.96,SSW,198,4.6,4.6,88,0.00,CLR,,0.00,WeatherDisplay:10.37,2013-08-03 08:58:00,
2013-08-03 04:03:00,78.1,74.3,29.96,SSE,153,1.2,1.2,88,0.00,CLR,,0.00,WeatherDisplay:10.37,2013-08-03 09:03:00,
2013-08-03 04:08:00,78.1,74.3,29.96,SE,141,1.2,2.4,88,0.00,CLR,,0.00,WeatherDisplay:10.37,2013-08-03 09:08:00,
2013-08-03 04:12:00,78.1,74.3,29.96,SSE,160,3.5,3.5,88,0.00,CLR,,0.00,WeatherDisplay:10.37,2013-08-03 09:12:00,
2013-08-03 04:18:00,78.1,74.3,29.96,SE,128,3.5,3.5,88,0.00,CLR,,0.00,WeatherDisplay:10.37,2013-08-03 09:18:00,
2013-08-03 04:23:00,78.0,74.2,29.96,SSE,161,2.3,2.3,88,0.00,CLR,,0.00,WeatherDisplay:10.37,2013-08-03 09:23:00,
2013-08-03 04:28:00,77.9,74.1,29.96,SSE,165,5.8,5.8,88,0.00,CLR,,0.00,WeatherDisplay:10.37,2013-08-03 09:28:00,
2013-08-03 04:33:00,77.8,74.0,29.96,ENE,74,3.5,3.5,88,0.00,CLR,,0.00,WeatherDisplay:10.37,2013-08-03 09:33:00,
2013-08-03 04:38:00,77.8,74.0,29.96,South,169,5.0,5.0,88,0.00,CLR,,0.00,WeatherDisplay:10.37,2013-08-03 09:38:00,
2013-08-03 04:43:00,77.7,74.2,29.96,SSE,161,3.5,3.5,89,0.00,CLR,,0.00,WeatherDisplay:10.37,2013-08-03 09:43:00,
2013-08-03 04:48:00,77.7,73.9,29.96,SSE,167,4.6,4.6,88,0.00,CLR,,0.00,WeatherDisplay:10.37,2013-08-03 09:48:00,
2013-08-03 04:53:00,77.7,74.2,29.97,South,185,3.5,3.5,89,0.00,CLR,,0.00,WeatherDisplay:10.37,2013-08-03 09:53:00,
2013-08-03 04:58:00,77.6,74.1,29.97,SSE,151,2.3,2.3,89,0.00,CLR,,0.00,WeatherDisplay:10.37,2013-08-03 09:58:00,
2013-08-03 05:02:00,77.6,74.1,29.97,South,180,3.5,3.5,89,0.00,CLR,,0.00,WeatherDisplay:10.37,2013-08-03 10:02:00,
2013-08-03 05:07:00,77.5,74.0,29.97,SSE,159,2.3,2.3,89,0.00,CLR,,0.00,WeatherDisplay:10.37,2013-08-03 10:07:00,
2013-08-03 05:13:00,77.5,74.0,29.97,SE,133,4.6,4.6,89,0.00,CLR,,0.00,WeatherDisplay:10.37,2013-08-03 10:13:00,
2013-08-03 05:18:00,77.5,74.0,29.97,South,177,1.2,1.2,89,0.00,CLR,,0.00,WeatherDisplay:10.37,2013-08-03 10:18:00,
2013-08-03 05:23:00,77.4,73.9,29.97,South,169,3.0,3.0,89,0.00,CLR,,0.00,WeatherDisplay:10.37,2013-08-03 10:23:00,
2013-08-03 05:28:00,77.4,73.9,29.97,SE,142,4.6,4.6,89,0.00,CLR,,0.00,WeatherDisplay:10.37,2013-08-03 10:28:00,
2013-08-03 05:33:00,77.4,73.9,29.97,SE,130,3.5,3.5,89,0.00,CLR,,0.00,WeatherDisplay:10.37,2013-08-03 10:33:00,
2013-08-03 05:38:00,77.4,73.9,29.97,SSW,200,2.3,2.3,89,0.00,CLR,,0.00,WeatherDisplay:10.37,2013-08-03 10:38:00,
2013-08-03 05:43:00,77.4,73.9,29.97,SSW,202,3.5,3.5,89,0.00,CLR,,0.00,WeatherDisplay:10.37,2013-08-03 10:43:00,
2013-08-03 05:48:00,77.5,74.0,29.97,SSW,202,5.8,5.8,89,0.00,CLR,,0.00,WeatherDisplay:10.37,2013-08-03 10:48:00,
2013-08-03 05:53:00,77.5,74.0,29.98,SSW,199,3.5,3.5,89,0.00,CLR,,0.00,WeatherDisplay:10.37,2013-08-03 10:53:00,
2013-08-03 05:58:00,77.5,74.0,29.97,SSW,194,5.8,5.8,89,0.00,CLR,,0.00,WeatherDisplay:10.37,2013-08-03 10:58:00,
2013-08-03 06:03:00,77.4,73.9,29.97,SW,221,6.9,6.9,89,0.00,CLR,,0.00,WeatherDisplay:10.37,2013-08-03 11:03:00,
2013-08-03 06:08:00,77.4,73.9,29.98,SSW,198,2.3,2.7,89,0.00,CLR,,0.00,WeatherDisplay:10.37,2013-08-03 11:08:00,
2013-08-03 06:13:00,77.2,73.7,29.98,SW,219,5.8,5.8,89,0.00,CLR,,0.00,WeatherDisplay:10.37,2013-08-03 11:13:00,
2013-08-03 06:18:00,77.1,73.6,29.98,South,173,2.3,2.3,89,0.00,CLR,,0.00,WeatherDisplay:10.37,2013-08-03 11:18:00,
2013-08-03 06:23:00,76.9,73.4,29.98,South,191,4.6,4.6,89,0.00,CLR,,0.00,WeatherDisplay:10.37,2013-08-03 11:23:00,
2013-08-03 06:28:00,76.8,73.6,29.97,SE,135,3.5,3.5,90,0.00,CLR,,0.00,WeatherDisplay:10.37,2013-08-03 11:28:00,
2013-08-03 06:33:00,76.7,73.5,29.98,South,191,3.5,3.5,90,0.00,CLR,,0.00,WeatherDisplay:10.37,2013-08-03 11:33:00,
2013-08-03 06:38:00,76.6,73.4,29.98,South,190,3.5,3.5,90,0.00,CLR,,0.00,WeatherDisplay:10.37,2013-08-03 11:38:00,
2013-08-03 06:43:00,76.4,73.2,29.98,South,171,4.6,4.6,90,0.00,CLR,,0.00,WeatherDisplay:10.37,2013-08-03 11:43:00,
2013-08-03 06:48:00,76.4,73.6,29.98,SSE,152,2.3,2.3,91,0.00,CLR,,0.00,WeatherDisplay:10.37,2013-08-03 11:48:00,
2013-08-03 06:53:00,76.3,73.5,29.98,SSW,198,3.5,3.5,91,0.00,CLR,,0.00,WeatherDisplay:10.37,2013-08-03 11:53:00,
2013-08-03 06:58:00,76.3,73.5,29.98,SSW,202,2.3,2.3,91,0.00,CLR,,0.00,WeatherDisplay:10.37,2013-08-03 11:58:00,
2013-08-03 07:03:00,76.3,73.5,29.97,SE,130,2.3,2.3,91,0.00,CLR,,0.00,WeatherDisplay:10.37,2013-08-03 12:03:00,
2013-08-03 07:08:00,76.2,73.4,29.97,South,185,1.2,1.6,91,0.00,CLR,,0.00,WeatherDisplay:10.37,2013-08-03 12:08:00,
2013-08-03 07:13:00,76.2,73.4,29.97,SSW,202,2.3,2.3,91,0.00,CLR,,0.00,WeatherDisplay:10.37,2013-08-03 12:13:00,
2013-08-03 07:18:00,76.1,73.3,29.97,SSW,206,2.3,2.3,91,0.00,CLR,,0.00,WeatherDisplay:10.37,2013-08-03 12:18:00,
2013-08-03 07:23:00,76.1,73.3,29.98,SSW,201,1.2,1.2,91,0.00,CLR,,0.00,WeatherDisplay:10.37,2013-08-03 12:23:00,
2013-08-03 07:28:00,76.2,73.4,29.97,SSW,205,3.5,3.5,91,0.00,CLR,,0.00,WeatherDisplay:10.37,2013-08-03 12:28:00,
2013-08-03 07:33:00,76.2,73.4,29.98,SE,136,3.5,3.5,91,0.00,CLR,,0.00,WeatherDisplay:10.37,2013-08-03 12:33:00,
2013-08-03 07:38:00,76.3,73.5,29.98,SSW,209,3.5,3.5,91,0.00,CLR,,0.00,WeatherDisplay:10.37,2013-08-03 12:38:00,
2013-08-03 07:43:00,76.5,73.7,29.98,SSW,207,5.8,5.8,91,0.00,CLR,,0.00,WeatherDisplay:10.37,2013-08-03 12:43:00,
2013-08-03 07:48:00,76.8,73.6,29.98,South,169,3.5,3.5,90,0.00,CLR,,0.00,WeatherDisplay:10.37,2013-08-03 12:48:00,
2013-08-03 07:53:00,77.4,74.2,29.98,SSE,157,3.5,3.5,90,0.00,CLR,,0.00,WeatherDisplay:10.37,2013-08-03 12:53:00,
2013-08-03 07:58:00,77.8,74.0,29.98,SSW,194,5.8,5.8,88,0.00,CLR,,0.00,WeatherDisplay:10.37,2013-08-03 12:58:00,
2013-08-03 08:03:00,78.2,74.0,29.98,SSE,168,6.9,6.9,87,0.00,CLR,,0.00,WeatherDisplay:10.37,2013-08-03 13:03:00,
2013-08-03 08:08:00,78.5,74.3,29.98,SSE,159,5.8,5.8,87,0.00,CLR,,0.00,WeatherDisplay:10.37,2013-08-03 13:08:00,
2013-08-03 08:13:00,79.0,74.5,29.98,SSE,156,6.9,6.9,86,0.00,CLR,,0.00,WeatherDisplay:10.37,2013-08-03 13:13:00,
2013-08-03 08:18:00,79.1,74.2,29.98,SSE,153,9.2,9.2,85,0.00,CLR,,0.00,WeatherDisplay:10.37,2013-08-03 13:18:00,
2013-08-03 08:23:00,79.4,74.1,29.98,SE,136,6.9,6.9,84,0.00,CLR,,0.00,WeatherDisplay:10.37,2013-08-03 13:23:00,
2013-08-03 08:28:00,79.5,74.2,29.98,ESE,120,6.9,6.9,84,0.00,CLR,,0.00,WeatherDisplay:10.37,2013-08-03 13:28:00,
2013-08-03 08:33:00,79.8,74.5,29.98,SSE,161,8.1,8.1,84,0.00,CLR,,0.00,WeatherDisplay:10.37,2013-08-03 13:33:00,
2013-08-03 08:38:00,80.1,74.5,29.99,ESE,117,7.0,7.0,83,0.00,CLR,,0.00,WeatherDisplay:10.37,2013-08-03 13:38:00,
2013-08-03 08:43:00,79.8,73.8,29.98,SE,144,8.1,8.1,82,0.00,CLR,,0.00,WeatherDisplay:10.37,2013-08-03 13:43:00,
2013-08-03 08:48:00,79.8,73.8,29.99,SSE,163,6.9,6.9,82,0.00,CLR,,0.00,WeatherDisplay:10.37,2013-08-03 13:48:00,
2013-08-03 08:53:00,80.0,73.6,29.99,ESE,123,5.8,5.8,81,0.00,CLR,,0.00,WeatherDisplay:10.37,2013-08-03 13:53:00,
2013-08-03 08:58:00,80.5,73.8,29.99,SE,134,6.9,6.9,80,0.00,CLR,,0.00,WeatherDisplay:10.37,2013-08-03 13:58:00,
2013-08-03 09:03:00,80.8,74.0,29.99,SSW,199,4.6,4.6,80,0.00,CLR,,0.00,WeatherDisplay:10.37,2013-08-03 14:03:00,
2013-08-03 09:08:00,81.2,73.3,29.99,SW,229,4.6,4.6,77,0.00,CLR,,0.00,WeatherDisplay:10.37,2013-08-03 14:08:00,
2013-08-03 09:13:00,81.5,72.8,29.99,SSW,201,10.4,10.4,75,0.00,CLR,,0.00,WeatherDisplay:10.37,2013-08-03 14:13:00,
2013-08-03 09:18:00,81.5,72.0,29.99,SW,215,8.1,8.1,73,0.00,CLR,,0.00,WeatherDisplay:10.37,2013-08-03 14:18:00,
2013-08-03 09:23:00,81.6,72.5,29.99,SSE,159,9.2,9.2,74,0.00,CLR,,0.00,WeatherDisplay:10.37,2013-08-03 14:23:00,
2013-08-03 09:28:00,81.9,72.0,30.00,ESE,120,6.9,6.9,72,0.00,CLR,,0.00,WeatherDisplay:10.37,2013-08-03 14:28:00,
2013-08-03 09:33:00,82.5,71.7,29.99,SE,144,10.4,10.4,70,0.00,CLR,,0.00,WeatherDisplay:10.37,2013-08-03 14:33:00,
2013-08-03 09:38:00,83.0,71.8,30.00,SSW,202,5.8,5.8,69,0.00,CLR,,0.00,WeatherDisplay:10.37,2013-08-03 14:38:00,
2013-08-03 09:43:00,83.2,71.1,29.99,SSW,196,8.1,8.1,67,0.00,CLR,,0.00,WeatherDisplay:10.37,2013-08-03 14:43:00,
2013-08-03 09:48:00,83.3,71.2,30.00,SE,144,9.2,9.2,67,0.00,CLR,,0.00,WeatherDisplay:10.37,2013-08-03 14:48:00,
2013-08-03 09:53:00,83.7,71.6,29.99,SW,217,6.9,6.9,67,0.00,CLR,,0.00,WeatherDisplay:10.37,2013-08-03 14:53:00,
2013-08-03 09:58:00,84.2,72.0,29.99,SE,138,8.1,8.1,67,0.00,CLR,,0.00,WeatherDisplay:10.37,2013-08-03 14:58:00,
2013-08-03 10:03:00,84.2,71.6,29.99,South,187,11.5,11.5,66,0.00,CLR,,0.00,WeatherDisplay:10.37,2013-08-03 15:03:00,
2013-08-03 10:08:00,84.4,72.2,29.99,SE,144,4.6,6.6,67,0.00,CLR,,0.00,WeatherDisplay:10.37,2013-08-03 15:08:00,
2013-08-03 10:13:00,84.3,73.0,29.99,South,191,6.9,6.9,69,0.00,CLR,,0.00,WeatherDisplay:10.37,2013-08-03 15:13:00,
2013-08-03 10:18:00,84.6,72.4,29.99,SSE,153,9.2,9.2,67,0.00,CLR,,0.00,WeatherDisplay:10.37,2013-08-03 15:18:00,
2013-08-03 10:23:00,84.8,72.6,29.99,SSE,153,6.9,6.9,67,0.00,CLR,,0.00,WeatherDisplay:10.37,2013-08-03 15:23:00,
2013-08-03 10:28:00,85.5,72.4,30.00,South,171,10.4,10.4,65,0.00,CLR,,0.00,WeatherDisplay:10.37,2013-08-03 15:28:00,
2013-08-03 10:33:00,85.6,72.0,30.00,South,184,9.2,9.2,64,0.00,CLR,,0.00,WeatherDisplay:10.37,2013-08-03 15:33:00,
2013-08-03 10:38:00,85.7,72.6,30.00,SW,236,8.1,8.1,65,0.00,CLR,,0.00,WeatherDisplay:10.37,2013-08-03 15:38:00,
2013-08-03 10:43:00,85.6,72.5,30.00,South,183,6.9,6.9,65,0.00,CLR,,0.00,WeatherDisplay:10.37,2013-08-03 15:43:00,
2013-08-03 10:48:00,85.7,71.7,30.00,SSW,211,10.4,10.4,63,0.00,CLR,,0.00,WeatherDisplay:10.37,2013-08-03 15:48:00,
2013-08-03 10:53:00,85.7,72.1,30.00,WSW,245,5.8,5.8,64,0.00,CLR,,0.00,WeatherDisplay:10.37,2013-08-03 15:53:00,
2013-08-03 10:58:00,86.1,72.5,30.00,SSW,213,8.1,8.1,64,0.00,CLR,,0.00,WeatherDisplay:10.37,2013-08-03 15:58:00,
2013-08-03 11:03:00,86.3,72.2,30.00,SSE,159,8.1,8.1,63,0.00,CLR,,0.00,WeatherDisplay:10.37,2013-08-03 16:03:00,
2013-08-03 11:08:00,86.3,71.7,30.00,SSE,155,8.1,8.1,62,0.00,CLR,,0.00,WeatherDisplay:10.37,2013-08-03 16:08:00,
2013-08-03 11:13:00,86.9,70.8,30.00,SSE,151,11.5,11.5,59,0.00,CLR,,0.00,WeatherDisplay:10.37,2013-08-03 16:13:00,
2013-08-03 11:18:00,86.9,71.3,30.00,SSW,206,4.6,4.8,60,0.00,CLR,,0.00,WeatherDisplay:10.37,2013-08-03 16:18:00,
2013-08-03 11:23:00,87.1,72.0,30.01,SSE,160,8.1,8.1,61,0.00,CLR,,0.00,WeatherDisplay:10.37,2013-08-03 16:23:00,
2013-08-03 11:28:00,87.3,71.7,30.00,SE,125,6.9,6.9,60,0.00,CLR,,0.00,WeatherDisplay:10.37,2013-08-03 16:28:00,
2013-08-03 11:33:00,87.6,73.0,30.00,South,186,3.5,3.5,62,0.00,CLR,,0.00,WeatherDisplay:10.37,2013-08-03 16:33:00,
2013-08-03 11:38:00,88.2,71.6,30.00,South,183,8.1,8.1,58,0.00,CLR,,0.00,WeatherDisplay:10.37,2013-08-03 16:38:00,
2013-08-03 11:43:00,88.6,71.9,30.00,SE,144,8.1,8.1,58,0.00,CLR,,0.00,WeatherDisplay:10.37,2013-08-03 16:43:00,
2013-08-03 11:48:00,88.6,71.9,30.00,SSW,209,12.7,12.7,58,0.00,CLR,,0.00,WeatherDisplay:10.37,2013-08-03 16:48:00,
2013-08-03 11:53:00,89.4,71.6,30.00,ESE,118,4.6,5.3,56,0.00,CLR,,0.00,WeatherDisplay:10.37,2013-08-03 16:53:00,
2013-08-03 11:58:00,88.9,71.2,30.00,SE,136,11.5,11.5,56,0.00,CLR,,0.00,WeatherDisplay:10.37,2013-08-03 16:58:00,
2013-08-03 12:03:00,88.5,71.3,30.00,SSE,157,10.4,10.4,57,0.00,CLR,,0.00,WeatherDisplay:10.37,2013-08-03 17:03:00,
2013-08-03 12:08:00,89.2,71.5,30.00,ESE,122,5.8,5.8,56,0.00,CLR,,0.00,WeatherDisplay:10.37,2013-08-03 17:08:00,
2013-08-03 12:13:00,89.5,70.7,30.00,South,178,10.4,10.4,54,0.00,CLR,,0.00,WeatherDisplay:10.37,2013-08-03 17:13:00,
2013-08-03 12:18:00,89.8,71.5,30.00,East,100,4.6,4.6,55,0.00,CLR,,0.00,WeatherDisplay:10.37,2013-08-03 17:18:00,
2013-08-03 12:23:00,90.2,72.4,29.99,SE,130,4.6,5.5,56,0.00,CLR,,0.00,WeatherDisplay:10.37,2013-08-03 17:23:00,
2013-08-03 12:28:00,90.1,71.2,29.99,SE,146,8.1,8.1,54,0.00,CLR,,0.00,WeatherDisplay:10.37,2013-08-03 17:28:00,
2013-08-03 12:33:00,90.1,70.7,29.99,East,93,10.4,10.4,53,0.00,CLR,,0.00,WeatherDisplay:10.37,2013-08-03 17:33:00,
2013-08-03 12:38:00,90.4,70.9,29.99,ENE,73,5.8,5.8,53,0.00,CLR,,0.00,WeatherDisplay:10.37,2013-08-03 17:38:00,
2013-08-03 12:43:00,91.1,69.9,29.99,SE,133,8.1,8.1,50,0.00,CLR,,0.00,WeatherDisplay:10.37,2013-08-03 17:43:00,
2013-08-03 12:48:00,91.5,71.4,29.99,SSE,156,6.9,6.9,52,0.00,CLR,,0.00,WeatherDisplay:10.37,2013-08-03 17:48:00,
2013-08-03 12:53:00,91.6,71.5,29.99,ESE,115,9.2,9.2,52,0.00,CLR,,0.00,WeatherDisplay:10.37,2013-08-03 17:53:00,
2013-08-03 12:58:00,91.3,70.1,29.99,South,178,4.6,4.6,50,0.00,CLR,,0.00,WeatherDisplay:10.37,2013-08-03 17:58:00,
2013-08-03 13:03:00,91.8,70.5,29.99,ENE,76,5.8,6.4,50,0.00,CLR,,0.00,WeatherDisplay:10.37,2013-08-03 18:03:00,
2013-08-03 13:08:00,92.0,69.5,29.98,ESE,109,12.7,12.7,48,0.00,CLR,,0.00,WeatherDisplay:10.37,2013-08-03 18:08:00,
2013-08-03 13:13:00,92.3,70.4,29.98,SE,142,8.1,8.1,49,0.00,CLR,,0.00,WeatherDisplay:10.37,2013-08-03 18:13:00,
2013-08-03 13:18:00,92.7,71.3,29.98,SSE,157,6.0,6.0,50,0.00,CLR,,0.00,WeatherDisplay:10.37,2013-08-03 18:18:00,
2013-08-03 13:23:00,93.0,71.0,29.98,East,82,11.5,11.5,49,0.00,CLR,,0.00,WeatherDisplay:10.37,2013-08-03 18:23:00,
2013-08-03 13:28:00,93.4,72.0,29.97,ESE,122,13.8,13.8,50,0.00,CLR,,0.00,WeatherDisplay:10.37,2013-08-03 18:28:00,
2013-08-03 13:33:00,93.8,70.5,29.98,SSE,154,10.4,10.4,47,0.00,CLR,,0.00,WeatherDisplay:10.37,2013-08-03 18:33:00,
2013-08-03 13:38:00,93.4,69.5,29.97,ENE,74,6.9,6.9,46,0.00,CLR,,0.00,WeatherDisplay:10.37,2013-08-03 18:38:00,
2013-08-03 13:43:00,93.9,68.7,29.97,South,178,8.1,8.1,44,0.00,CLR,,0.00,WeatherDisplay:10.37,2013-08-03 18:43:00,
2013-08-03 13:48:00,94.1,70.2,29.97,East,98,9.2,9.2,46,0.00,CLR,,0.00,WeatherDisplay:10.37,2013-08-03 18:48:00,
2013-08-03 13:53:00,94.0,70.7,29.97,ESE,123,11.5,11.5,47,0.00,CLR,,0.00,WeatherDisplay:10.37,2013-08-03 18:53:00,
2013-08-03 13:58:00,93.9,70.6,29.96,East,85,10.4,10.4,47,0.00,CLR,,0.00,WeatherDisplay:10.37,2013-08-03 18:58:00,
2013-08-03 14:03:00,94.2,70.2,29.96,SE,136,8.1,8.1,46,0.00,CLR,,0.00,WeatherDisplay:10.37,2013-08-03 19:03:00,
2013-08-03 14:08:00,94.6,68.6,29.96,SSW,206,9.2,9.2,43,0.00,CLR,,0.00,WeatherDisplay:10.37,2013-08-03 19:08:00,
2013-08-03 14:13:00,95.1,68.4,29.96,SE,134,13.8,13.8,42,0.00,CLR,,0.00,WeatherDisplay:10.37,2013-08-03 19:13:00,
2013-08-03 14:18:00,95.0,67.6,29.95,SSW,198,8.1,8.1,41,0.00,CLR,,0.00,WeatherDisplay:10.37,2013-08-03 19:18:00,
2013-08-03 14:23:00,95.4,69.4,29.95,SE,132,8.1,8.1,43,0.00,CLR,,0.00,WeatherDisplay:10.37,2013-08-03 19:23:00,
2013-08-03 14:28:00,95.7,68.9,29.95,SSW,209,10.4,10.4,42,0.00,CLR,,0.00,WeatherDisplay:10.37,2013-08-03 19:28:00,
2013-08-03 14:33:00,96.0,69.9,29.95,SSE,167,9.2,9.2,43,0.00,CLR,,0.00,WeatherDisplay:10.37,2013-08-03 19:33:00,
2013-08-03 14:38:00,96.2,68.7,29.95,SSW,202,4.6,4.6,41,0.00,CLR,,0.00,WeatherDisplay:10.37,2013-08-03 19:38:00,
2013-08-03 14:43:00,96.5,67.5,29.94,SE,140,9.2,9.2,39,0.00,CLR,,0.00,WeatherDisplay:10.37,2013-08-03 19:43:00,
2013-08-03 14:48:00,96.4,67.4,29.94,ESE,109,9.2,9.2,39,0.00,CLR,,0.00,WeatherDisplay:10.37,2013-08-03 19:48:00,
2013-08-03 14:53:00,96.3,68.1,29.94,East,86,6.9,6.9,40,0.00,CLR,,0.00,WeatherDisplay:10.37,2013-08-03 19:53:00,
2013-08-03 14:58:00,96.8,69.2,29.94,SE,138,6.9,6.9,41,0.00,CLR,,0.00,WeatherDisplay:10.37,2013-08-03 19:58:00,
2013-08-03 15:03:00,97.3,69.7,29.93,SE,134,8.1,8.1,41,0.00,CLR,,0.00,WeatherDisplay:10.37,2013-08-03 20:03:00,
2013-08-03 15:08:00,97.3,68.2,29.93,East,99,18.4,18.4,39,0.00,CLR,,0.00,WeatherDisplay:10.37,2013-08-03 20:08:00,
2013-08-03 15:13:00,96.4,69.6,29.93,East,98,6.0,6.0,42,0.00,CLR,,0.00,WeatherDisplay:10.37,2013-08-03 20:13:00,
2013-08-03 15:18:00,96.5,69.7,29.93,South,185,3.5,3.5,42,0.00,CLR,,0.00,WeatherDisplay:10.37,2013-08-03 20:18:00,
2013-08-03 15:23:00,97.4,68.3,29.93,SSW,198,11.5,11.5,39,0.00,CLR,,0.00,WeatherDisplay:10.37,2013-08-03 20:23:00,
2013-08-03 15:28:00,97.3,68.2,29.93,SE,137,6.9,6.9,39,0.00,CLR,,0.00,WeatherDisplay:10.37,2013-08-03 20:28:00,
2013-08-03 15:33:00,97.5,68.4,29.93,SE,128,10.4,10.4,39,0.00,CLR,,0.00,WeatherDisplay:10.37,2013-08-03 20:33:00,
2013-08-03 15:38:00,97.6,68.5,29.92,ESE,121,4.6,4.6,39,0.00,CLR,,0.00,WeatherDisplay:10.37,2013-08-03 20:38:00,
2013-08-03 15:43:00,97.5,68.4,29.92,East,85,6.9,6.9,39,0.00,CLR,,0.00,WeatherDisplay:10.37,2013-08-03 20:43:00,
2013-08-03 15:48:00,98.0,68.8,29.92,East,90,10.4,10.4,39,0.00,CLR,,0.00,WeatherDisplay:10.37,2013-08-03 20:48:00,
2013-08-03 15:53:00,97.9,69.5,29.92,East,87,6.9,6.9,40,0.00,CLR,,0.00,WeatherDisplay:10.37,2013-08-03 20:53:00,
2013-08-03 15:58:00,97.8,68.6,29.92,East,84,9.2,9.2,39,0.00,CLR,,0.00,WeatherDisplay:10.37,2013-08-03 20:58:00,
2013-08-03 16:03:00,98.0,68.8,29.92,ENE,66,17.3,17.3,39,0.00,CLR,,0.00,WeatherDisplay:10.37,2013-08-03 21:03:00,
2013-08-03 16:08:00,97.1,68.0,29.91,SE,132,3.5,5.5,39,0.00,CLR,,0.00,WeatherDisplay:10.37,2013-08-03 21:08:00,
2013-08-03 16:13:00,97.2,68.1,29.91,SSE,150,8.1,8.1,39,0.00,CLR,,0.00,WeatherDisplay:10.37,2013-08-03 21:13:00,
2013-08-03 16:18:00,97.8,67.9,29.91,East,83,11.5,11.5,38,0.00,CLR,,0.00,WeatherDisplay:10.37,2013-08-03 21:18:00,
2013-08-03 16:23:00,97.6,68.5,29.91,ESE,113,13.8,13.8,39,0.00,CLR,,0.00,WeatherDisplay:10.37,2013-08-03 21:23:00,
2013-08-03 16:28:00,97.5,67.6,29.91,ESE,103,8.1,8.1,38,0.00,CLR,,0.00,WeatherDisplay:10.37,2013-08-03 21:28:00,
2013-08-03 16:33:00,97.9,68.7,29.91,SSE,153,6.0,6.0,39,0.00,CLR,,0.00,WeatherDisplay:10.37,2013-08-03 21:33:00,
2013-08-03 16:38:00,98.5,69.3,29.91,East,81,12.7,12.7,39,0.00,CLR,,0.00,WeatherDisplay:10.37,2013-08-03 21:38:00,
2013-08-03 16:43:00,97.8,67.9,29.91,East,94,12.7,12.7,38,0.00,CLR,,0.00,WeatherDisplay:10.37,2013-08-03 21:43:00,
2013-08-03 16:48:00,98.0,68.1,29.91,East,93,9.2,9.2,38,0.00,CLR,,0.00,WeatherDisplay:10.37,2013-08-03 21:48:00,
2013-08-03 16:53:00,98.4,69.2,29.91,East,95,6.0,6.0,39,0.00,CLR,,0.00,WeatherDisplay:10.37,2013-08-03 21:53:00,
2013-08-03 16:58:00,98.4,68.4,29.91,East,91,8.1,8.1,38,0.00,CLR,,0.00,WeatherDisplay:10.37,2013-08-03 21:58:00,
2013-08-03 17:03:00,98.6,67.8,29.91,ESE,107,10.0,10.0,37,0.00,CLR,,0.00,WeatherDisplay:10.37,2013-08-03 22:03:00,
2013-08-03 17:08:00,98.6,67.8,29.91,SSE,167,9.2,9.2,37,0.00,CLR,,0.00,WeatherDisplay:10.37,2013-08-03 22:08:00,
2013-08-03 17:13:00,98.7,68.7,29.91,SE,145,10.4,10.4,38,0.00,CLR,,0.00,WeatherDisplay:10.37,2013-08-03 22:13:00,
2013-08-03 17:18:00,98.8,68.0,29.90,ESE,114,4.6,4.6,37,0.00,CLR,,0.00,WeatherDisplay:10.37,2013-08-03 22:18:00,
2013-08-03 17:23:00,98.7,68.7,29.90,East,88,18.4,18.4,38,0.00,CLR,,0.00,WeatherDisplay:10.37,2013-08-03 22:23:00,
2013-08-03 17:28:00,98.5,68.5,29.90,ENE,70,11.5,11.5,38,0.00,CLR,,0.00,WeatherDisplay:10.37,2013-08-03 22:28:00,
2013-08-03 17:33:00,98.5,68.5,29.90,SE,134,6.9,6.9,38,0.00,CLR,,0.00,WeatherDisplay:10.37,2013-08-03 22:33:00,
2013-08-03 17:38:00,98.7,68.7,29.90,ESE,116,10.4,10.4,38,0.00,CLR,,0.00,WeatherDisplay:10.37,2013-08-03 22:38:00,
2013-08-03 17:43:00,98.4,68.4,29.90,ESE,105,10.4,10.4,38,0.00,CLR,,0.00,WeatherDisplay:10.37,2013-08-03 22:43:00,
2013-08-03 17:48:00,97.9,68.7,29.90,ESE,122,11.5,11.5,39,0.00,CLR,,0.00,WeatherDisplay:10.37,2013-08-03 22:48:00,
2013-08-03 17:53:00,98.0,68.8,29.90,East,89,2.3,2.3,39,0.00,CLR,,0.00,WeatherDisplay:10.37,2013-08-03 22:53:00,
2013-08-03 17:58:00,98.5,68.5,29.90,East,101,8.0,8.0,38,0.00,CLR,,0.00,WeatherDisplay:10.37,2013-08-03 22:58:00,
2013-08-03 18:03:00,98.3,68.3,29.90,East,90,8.1,8.1,38,0.00,CLR,,0.00,WeatherDisplay:10.37,2013-08-03 23:03:00,
2013-08-03 18:08:00,97.8,68.6,29.90,East,85,6.9,6.9,39,0.00,CLR,,0.00,WeatherDisplay:10.37,2013-08-03 23:08:00,
2013-08-03 18:13:00,97.7,68.6,29.90,ENE,76,5.8,5.8,39,0.00,CLR,,0.00,WeatherDisplay:10.37,2013-08-03 23:13:00,
2013-08-03 18:18:00,98.1,68.2,29.90,ENE,78,9.2,9.2,38,0.00,CLR,,0.00,WeatherDisplay:10.37,2013-08-03 23:18:00,
2013-08-03 18:23:00,98.0,68.1,29.90,East,94,11.5,11.5,38,0.00,CLR,,0.00,WeatherDisplay:10.37,2013-08-03 23:23:00,
2013-08-03 18:28:00,97.6,67.7,29.90,SE,134,9.2,9.2,38,0.00,CLR,,0.00,WeatherDisplay:10.37,2013-08-03 23:28:00,
2013-08-03 18:33:00,97.3,68.9,29.90,SE,136,8.1,8.1,40,0.00,CLR,,0.00,WeatherDisplay:10.37,2013-08-03 23:33:00,
2013-08-03 18:38:00,97.3,68.9,29.89,East,92,6.9,6.9,40,0.00,CLR,,0.00,WeatherDisplay:10.37,2013-08-03 23:38:00,
2013-08-03 18:43:00,97.2,68.9,29.89,ENE,76,4.6,4.6,40,0.00,CLR,,0.00,WeatherDisplay:10.37,2013-08-03 23:43:00,
2013-08-03 18:48:00,97.2,68.9,29.89,East,91,10.4,10.4,40,0.00,CLR,,0.00,WeatherDisplay:10.37,2013-08-03 23:48:00,
2013-08-03 18:53:00,97.4,69.0,29.89,East,85,6.9,6.9,40,0.00,CLR,,0.00,WeatherDisplay:10.37,2013-08-03 23:53:00,
2013-08-03 18:58:00,97.2,68.1,29.89,ESE,112,8.1,8.1,39,0.00,CLR,,0.00,WeatherDisplay:10.37,2013-08-03 23:58:00,
2013-08-03 19:03:00,97.2,68.9,29.89,East,89,3.5,4.1,40,0.00,CLR,,0.00,WeatherDisplay:10.37,2013-08-04 00:03:00,
2013-08-03 19:08:00,97.0,68.7,29.89,ESE,113,6.9,6.9,40,0.00,CLR,,0.00,WeatherDisplay:10.37,2013-08-04 00:08:00,
2013-08-03 19:13:00,96.7,69.1,29.89,ENE,67,11.5,11.5,41,0.00,CLR,,0.00,WeatherDisplay:10.37,2013-08-04 00:13:00,
2013-08-03 19:18:00,96.4,68.9,29.89,East,96,9.2,9.2,41,0.00,CLR,,0.00,WeatherDisplay:10.37,2013-08-04 00:18:00,
2013-08-03 19:23:00,96.2,69.4,29.89,East,88,6.9,6.9,42,0.00,CLR,,0.00,WeatherDisplay:10.37,2013-08-04 00:23:00,
2013-08-03 19:28:00,96.0,69.9,29.90,East,84,10.4,10.4,43,0.00,CLR,,0.00,WeatherDisplay:10.37,2013-08-04 00:28:00,
2013-08-03 19:33:00,95.7,69.6,29.90,ESE,119,10.4,10.4,43,0.00,CLR,,0.00,WeatherDisplay:10.37,2013-08-04 00:33:00,
2013-08-03 19:38:00,95.3,69.3,29.90,ESE,122,11.5,11.5,43,0.00,CLR,,0.00,WeatherDisplay:10.37,2013-08-04 00:38:00,
2013-08-03 19:43:00,95.0,69.0,29.90,East,86,9.2,9.2,43,0.00,CLR,,0.00,WeatherDisplay:10.37,2013-08-04 00:43:00,
2013-08-03 19:48:00,94.8,69.5,29.90,East,95,5.8,5.8,44,0.00,CLR,,0.00,WeatherDisplay:10.37,2013-08-04 00:48:00,
2013-08-03 19:54:00,94.6,69.3,29.90,ENE,78,9.2,9.2,44,0.00,CLR,,0.00,WeatherDisplay:10.37,2013-08-04 00:54:00,
2013-08-03 19:59:00,94.4,69.1,29.90,ENE,71,8.1,8.1,44,0.00,CLR,,0.00,WeatherDisplay:10.37,2013-08-04 00:59:00,
2013-08-03 20:04:00,94.1,69.5,29.90,ENE,73,10.4,10.4,45,0.00,CLR,,0.00,WeatherDisplay:10.37,2013-08-04 01:04:00,
2013-08-03 20:09:00,93.9,70.0,29.90,ESE,105,8.1,8.1,46,0.00,CLR,,0.00,WeatherDisplay:10.37,2013-08-04 01:09:00,
2013-08-03 20:14:00,93.6,69.7,29.90,ESE,103,11.5,11.5,46,0.00,CLR,,0.00,WeatherDisplay:10.37,2013-08-04 01:14:00,
2013-08-03 20:19:00,93.2,70.0,29.90,East,89,12.7,12.7,47,0.00,CLR,,0.00,WeatherDisplay:10.37,2013-08-04 01:19:00,
2013-08-03 20:24:00,92.9,70.3,29.91,ESE,122,12.7,12.7,48,0.00,CLR,,0.00,WeatherDisplay:10.37,2013-08-04 01:24:00,
2013-08-03 20:29:00,92.5,70.6,29.91,ESE,111,13.8,13.8,49,0.00,CLR,,0.00,WeatherDisplay:10.37,2013-08-04 01:29:00,
2013-08-03 20:34:00,92.3,71.0,29.91,East,96,11.5,11.5,50,0.00,CLR,,0.00,WeatherDisplay:10.37,2013-08-04 01:34:00,
2013-08-03 20:39:00,92.1,70.8,29.91,ESE,109,10.4,10.4,50,0.00,CLR,,0.00,WeatherDisplay:10.37,2013-08-04 01:39:00,
2013-08-03 20:44:00,91.9,71.2,29.91,ESE,105,11.5,11.5,51,0.00,CLR,,0.00,WeatherDisplay:10.37,2013-08-04 01:44:00,
2013-08-03 20:49:00,91.6,70.9,29.91,ESE,107,10.4,10.4,51,0.00,CLR,,0.00,WeatherDisplay:10.37,2013-08-04 01:49:00,
2013-08-03 20:54:00,91.3,71.2,29.92,ESE,113,13.8,13.8,52,0.00,CLR,,0.00,WeatherDisplay:10.37,2013-08-04 01:54:00,
2013-08-03 20:59:00,91.0,70.9,29.92,ESE,109,13.0,13.0,52,0.00,CLR,,0.00,WeatherDisplay:10.37,2013-08-04 01:59:00,
2013-08-03 21:04:00,90.6,71.1,29.92,East,94,10.4,10.4,53,0.00,CLR,,0.00,WeatherDisplay:10.37,2013-08-04 02:04:00,
2013-08-03 21:09:00,90.3,70.8,29.93,ESE,104,13.8,13.8,53,0.00,CLR,,0.00,WeatherDisplay:10.37,2013-08-04 02:09:00,
2013-08-03 21:14:00,89.9,71.0,29.93,East,86,11.5,11.5,54,0.00,CLR,,0.00,WeatherDisplay:10.37,2013-08-04 02:14:00,
2013-08-03 21:19:00,89.7,70.8,29.93,SE,132,13.8,13.8,54,0.00,CLR,,0.00,WeatherDisplay:10.37,2013-08-04 02:19:00,
2013-08-03 21:24:00,89.3,71.0,29.93,East,100,11.5,11.5,55,0.00,CLR,,0.00,WeatherDisplay:10.37,2013-08-04 02:24:00,
2013-08-03 21:29:00,89.0,71.3,29.93,ENE,78,19.6,19.6,56,0.00,CLR,,0.00,WeatherDisplay:10.37,2013-08-04 02:29:00,
2013-08-03 21:34:00,88.7,71.0,29.94,East,81,12.7,12.7,56,0.00,CLR,,0.00,WeatherDisplay:10.37,2013-08-04 02:34:00,
2013-08-03 21:39:00,88.3,70.6,29.94,SE,140,12.7,12.7,56,0.00,CLR,,0.00,WeatherDisplay:10.37,2013-08-04 02:39:00,
2013-08-03 21:44:00,88.1,70.9,29.94,ESE,117,12.7,12.7,57,0.00,CLR,,0.00,WeatherDisplay:10.37,2013-08-04 02:44:00,
2013-08-03 21:49:00,87.9,70.8,29.94,ESE,119,11.5,11.5,57,0.00,CLR,,0.00,WeatherDisplay:10.37,2013-08-04 02:49:00,
2013-08-03 21:54:00,87.6,71.0,29.95,SE,131,13.8,13.8,58,0.00,CLR,,0.00,WeatherDisplay:10.37,2013-08-04 02:54:00,
2013-08-03 21:59:00,87.3,71.7,29.95,ENE,70,12.7,12.7,60,0.00,CLR,,0.00,WeatherDisplay:10.37,2013-08-04 02:59:00,
2013-08-03 22:04:00,86.9,71.8,29.95,East,82,16.1,16.1,61,0.00,CLR,,0.00,WeatherDisplay:10.37,2013-08-04 03:04:00,
2013-08-03 22:09:00,86.6,72.0,29.95,East,93,15.0,15.0,62,0.00,CLR,,0.00,WeatherDisplay:10.37,2013-08-04 03:09:00,
2013-08-03 22:14:00,86.4,72.3,29.96,East,86,17.3,17.3,63,0.00,CLR,,0.00,WeatherDisplay:10.37,2013-08-04 03:14:00,
2013-08-03 22:19:00,86.1,72.0,29.96,ESE,114,11.5,11.5,63,0.00,CLR,,0.00,WeatherDisplay:10.37,2013-08-04 03:19:00,
2013-08-03 22:24:00,85.9,72.3,29.96,ESE,104,19.6,19.6,64,0.00,CLR,,0.00,WeatherDisplay:10.37,2013-08-04 03:24:00,
2013-08-03 22:29:00,85.7,72.1,29.97,SE,138,9.2,9.2,64,0.00,CLR,,0.00,WeatherDisplay:10.37,2013-08-04 03:29:00,
2013-08-03 22:34:00,85.5,72.4,29.97,ESE,113,15.0,15.0,65,0.00,CLR,,0.00,WeatherDisplay:10.37,2013-08-04 03:34:00,
2013-08-03 22:39:00,85.3,72.2,29.97,ESE,118,11.5,11.5,65,0.00,CLR,,0.00,WeatherDisplay:10.37,2013-08-04 03:39:00,
2013-08-03 22:44:00,85.0,72.4,29.98,East,84,10.4,10.4,66,0.00,CLR,,0.00,WeatherDisplay:10.37,2013-08-04 03:44:00,
2013-08-03 22:49:00,84.8,72.2,29.98,East,84,12.7,12.7,66,0.00,CLR,,0.00,WeatherDisplay:10.37,2013-08-04 03:49:00,
2013-08-03 22:54:00,84.7,72.5,29.98,SE,141,11.5,11.5,67,0.00,CLR,,0.00,WeatherDisplay:10.37,2013-08-04 03:54:00,
2013-08-03 22:59:00,84.5,72.8,29.99,ESE,103,11.5,11.5,68,0.00,CLR,,0.00,WeatherDisplay:10.37,2013-08-04 03:59:00,
2013-08-03 23:01:00,84.4,72.7,29.99,ESE,111,11.5,11.5,68,0.00,CLR,,0.00,WeatherDisplay:10.37,2013-08-04 04:01:00,
2013-08-03 23:02:00,84.3,72.6,29.99,East,96,15.0,15.0,68,0.00,CLR,,0.00,WeatherDisplay:10.37,2013-08-04 04:02:00,
2013-08-03 23:07:00,84.2,72.9,29.99,SE,127,16.1,16.1,69,0.00,CLR,,0.00,WeatherDisplay:10.37,2013-08-04 04:07:00,
2013-08-03 23:12:00,83.9,72.6,29.99,ESE,108,13.8,13.8,69,0.00,CLR,,0.00,WeatherDisplay:10.37,2013-08-04 04:12:00,
2013-08-03 23:17:00,83.8,72.1,29.99,SE,139,12.7,12.7,68,0.00,CLR,,0.00,WeatherDisplay:10.37,2013-08-04 04:17:00,
2013-08-03 23:22:00,83.6,71.9,29.99,East,92,10.4,10.4,68,0.00,CLR,,0.00,WeatherDisplay:10.37,2013-08-04 04:22:00,
2013-08-03 23:27:00,83.5,71.8,29.99,ESE,109,16.1,16.1,68,0.00,CLR,,0.00,WeatherDisplay:10.37,2013-08-04 04:27:00,
2013-08-03 23:32:00,83.3,71.6,30.00,SE,124,15.0,15.0,68,0.00,CLR,,0.00,WeatherDisplay:10.37,2013-08-04 04:32:00,
2013-08-03 23:37:00,83.2,72.0,30.00,East,88,11.0,11.0,69,0.00,CLR,,0.00,WeatherDisplay:10.37,2013-08-04 04:37:00,
2013-08-03 23:42:00,83.0,71.8,30.00,East,96,11.5,11.5,69,0.00,CLR,,0.00,WeatherDisplay:10.37,2013-08-04 04:42:00,
2013-08-03 23:47:00,82.9,72.1,30.01,ESE,113,12.7,12.7,70,0.00,CLR,,0.00,WeatherDisplay:10.37,2013-08-04 04:47:00,
2013-08-03 23:52:00,82.7,72.3,30.01,East,99,8.1,8.1,71,0.00,CLR,,0.00,WeatherDisplay:10.37,2013-08-04 04:52:00,
2013-08-03 23:57:00,82.5,72.1,30.01,ESE,102,9.2,9.2,71,0.00,CLR,,0.00,WeatherDisplay:10.37,2013-08-04 04:57:00,